sensor_id;sensor_type;location;lat;lon;timestamp;P1;durP1;ratioP1;P2;durP2;ratioP2
29210;SDS011;16250;49.932;10.980;2023-01-08T00:02:15;1.52;;;1.52;;
29210;SDS011;16250;49.932;10.980;2023-01-08T00:04:41;1.98;;;1.98;;
29210;SDS011;16250;49.932;10.980;2023-01-08T00:07:07;1.55;;;1.55;;
29210;SDS011;16250;49.932;10.980;2023-01-08T00:09:33;3.00;;;2.80;;
29210;SDS011;16250;49.932;10.980;2023-01-08T00:11:58;1.67;;;1.67;;
29210;SDS011;16250;49.932;10.980;2023-01-08T00:14:24;4.30;;;4.00;;
29210;SDS011;16250;49.932;10.980;2023-01-08T00:16:49;2.25;;;2.08;;
29210;SDS011;16250;49.932;10.980;2023-01-08T00:19:15;1.83;;;1.83;;
29210;SDS011;16250;49.932;10.980;2023-01-08T00:21:41;1.70;;;1.70;;
29210;SDS011;16250;49.932;10.980;2023-01-08T00:24:07;2.10;;;2.08;;
29210;SDS011;16250;49.932;10.980;2023-01-08T00:26:32;2.20;;;2.10;;
29210;SDS011;16250;49.932;10.980;2023-01-08T00:28:58;1.35;;;1.35;;
29210;SDS011;16250;49.932;10.980;2023-01-08T00:31:23;1.90;;;1.90;;
29210;SDS011;16250;49.932;10.980;2023-01-08T00:33:49;1.65;;;1.65;;
29210;SDS011;16250;49.932;10.980;2023-01-08T00:36:15;4.63;;;3.47;;
29210;SDS011;16250;49.932;10.980;2023-01-08T00:38:42;2.55;;;2.45;;
29210;SDS011;16250;49.932;10.980;2023-01-08T00:41:08;1.80;;;1.80;;
29210;SDS011;16250;49.932;10.980;2023-01-08T00:43:34;1.65;;;1.65;;
29210;SDS011;16250;49.932;10.980;2023-01-08T00:46:00;1.77;;;1.77;;
29210;SDS011;16250;49.932;10.980;2023-01-08T00:48:26;3.80;;;2.60;;
29210;SDS011;16250;49.932;10.980;2023-01-08T00:50:52;1.90;;;1.90;;
29210;SDS011;16250;49.932;10.980;2023-01-08T00:53:18;4.13;;;3.83;;
29210;SDS011;16250;49.932;10.980;2023-01-08T00:55:44;1.80;;;1.80;;
29210;SDS011;16250;49.932;10.980;2023-01-08T00:58:10;2.00;;;2.00;;
29210;SDS011;16250;49.932;10.980;2023-01-08T01:00:36;1.60;;;1.60;;
29210;SDS011;16250;49.932;10.980;2023-01-08T01:03:02;1.42;;;1.42;;
29210;SDS011;16250;49.932;10.980;2023-01-08T01:05:28;1.42;;;1.42;;
29210;SDS011;16250;49.932;10.980;2023-01-08T01:07:53;1.63;;;1.63;;
29210;SDS011;16250;49.932;10.980;2023-01-08T01:10:20;1.50;;;1.50;;
29210;SDS011;16250;49.932;10.980;2023-01-08T01:12:46;2.00;;;1.90;;
29210;SDS011;16250;49.932;10.980;2023-01-08T01:15:13;2.38;;;2.28;;
29210;SDS011;16250;49.932;10.980;2023-01-08T01:17:40;2.50;;;2.40;;
29210;SDS011;16250;49.932;10.980;2023-01-08T01:20:08;2.50;;;2.40;;
29210;SDS011;16250;49.932;10.980;2023-01-08T01:22:35;2.78;;;2.58;;
29210;SDS011;16250;49.932;10.980;2023-01-08T01:25:02;1.55;;;1.55;;
29210;SDS011;16250;49.932;10.980;2023-01-08T01:27:28;1.40;;;1.40;;
29210;SDS011;16250;49.932;10.980;2023-01-08T01:29:54;2.53;;;1.95;;
29210;SDS011;16250;49.932;10.980;2023-01-08T01:32:19;1.35;;;1.35;;
29210;SDS011;16250;49.932;10.980;2023-01-08T01:34:45;1.60;;;1.60;;
29210;SDS011;16250;49.932;10.980;2023-01-08T01:37:11;1.25;;;1.25;;
29210;SDS011;16250;49.932;10.980;2023-01-08T01:39:37;6.40;;;5.85;;
29210;SDS011;16250;49.932;10.980;2023-01-08T01:42:03;2.25;;;2.05;;
29210;SDS011;16250;49.932;10.980;2023-01-08T01:47:27;1.90;;;1.90;;
29210;SDS011;16250;49.932;10.980;2023-01-08T01:52:42;1.88;;;1.77;;
29210;SDS011;16250;49.932;10.980;2023-01-08T01:55:21;1.38;;;1.38;;
29210;SDS011;16250;49.932;10.980;2023-01-08T01:57:49;1.63;;;1.63;;
29210;SDS011;16250;49.932;10.980;2023-01-08T02:00:18;1.55;;;1.55;;
29210;SDS011;16250;49.932;10.980;2023-01-08T02:02:43;2.70;;;2.42;;
29210;SDS011;16250;49.932;10.980;2023-01-08T02:05:09;1.73;;;1.63;;
29210;SDS011;16250;49.932;10.980;2023-01-08T02:07:43;1.55;;;1.52;;
29210;SDS011;16250;49.932;10.980;2023-01-08T02:13:20;1.00;;;1.00;;
29210;SDS011;16250;49.932;10.980;2023-01-08T02:15:56;1.20;;;1.20;;
29210;SDS011;16250;49.932;10.980;2023-01-08T02:18:28;1.40;;;1.40;;
29210;SDS011;16250;49.932;10.980;2023-01-08T02:21:30;2.60;;;2.42;;
29210;SDS011;16250;49.932;10.980;2023-01-08T02:24:10;1.50;;;1.50;;
29210;SDS011;16250;49.932;10.980;2023-01-08T02:26:56;1.30;;;1.30;;
29210;SDS011;16250;49.932;10.980;2023-01-08T02:29:25;1.20;;;1.20;;
29210;SDS011;16250;49.932;10.980;2023-01-08T02:31:53;1.45;;;1.45;;
29210;SDS011;16250;49.932;10.980;2023-01-08T02:34:19;2.25;;;2.15;;
29210;SDS011;16250;49.932;10.980;2023-01-08T02:36:45;1.20;;;1.20;;
29210;SDS011;16250;49.932;10.980;2023-01-08T02:44:23;1.30;;;1.30;;
29210;SDS011;16250;49.932;10.980;2023-01-08T02:47:00;1.23;;;1.23;;
29210;SDS011;16250;49.932;10.980;2023-01-08T02:49:31;2.13;;;2.03;;
29210;SDS011;16250;49.932;10.980;2023-01-08T02:51:58;1.20;;;1.20;;
29210;SDS011;16250;49.932;10.980;2023-01-08T02:54:27;1.10;;;1.10;;
29210;SDS011;16250;49.932;10.980;2023-01-08T02:57:12;1.17;;;1.17;;
29210;SDS011;16250;49.932;10.980;2023-01-08T02:59:39;1.20;;;1.20;;
29210;SDS011;16250;49.932;10.980;2023-01-08T03:02:07;0.90;;;0.90;;
29210;SDS011;16250;49.932;10.980;2023-01-08T03:04:35;1.40;;;1.30;;
29210;SDS011;16250;49.932;10.980;2023-01-08T03:07:05;2.35;;;2.25;;
29210;SDS011;16250;49.932;10.980;2023-01-08T03:09:30;1.10;;;1.10;;
29210;SDS011;16250;49.932;10.980;2023-01-08T03:14:29;1.15;;;1.15;;
29210;SDS011;16250;49.932;10.980;2023-01-08T03:17:04;1.90;;;1.80;;
29210;SDS011;16250;49.932;10.980;2023-01-08T03:19:39;1.33;;;1.33;;
29210;SDS011;16250;49.932;10.980;2023-01-08T03:22:08;4.88;;;2.90;;
29210;SDS011;16250;49.932;10.980;2023-01-08T03:24:37;1.30;;;1.30;;
29210;SDS011;16250;49.932;10.980;2023-01-08T03:27:05;1.13;;;1.13;;
29210;SDS011;16250;49.932;10.980;2023-01-08T03:29:34;0.85;;;0.85;;
29210;SDS011;16250;49.932;10.980;2023-01-08T03:32:03;1.85;;;1.75;;
29210;SDS011;16250;49.932;10.980;2023-01-08T03:34:32;1.10;;;1.10;;
29210;SDS011;16250;49.932;10.980;2023-01-08T03:37:01;1.08;;;1.08;;
29210;SDS011;16250;49.932;10.980;2023-01-08T03:39:42;1.40;;;1.40;;
29210;SDS011;16250;49.932;10.980;2023-01-08T03:42:12;1.30;;;1.30;;
29210;SDS011;16250;49.932;10.980;2023-01-08T03:44:41;0.85;;;0.85;;
29210;SDS011;16250;49.932;10.980;2023-01-08T03:47:07;0.70;;;0.70;;
29210;SDS011;16250;49.932;10.980;2023-01-08T03:49:34;0.73;;;0.73;;
29210;SDS011;16250;49.932;10.980;2023-01-08T03:52:01;2.45;;;2.25;;
29210;SDS011;16250;49.932;10.980;2023-01-08T03:54:28;1.98;;;1.17;;
29210;SDS011;16250;49.932;10.980;2023-01-08T03:56:56;0.75;;;0.75;;
29210;SDS011;16250;49.932;10.980;2023-01-08T03:59:21;0.77;;;0.77;;
29210;SDS011;16250;49.932;10.980;2023-01-08T04:01:47;0.68;;;0.68;;
29210;SDS011;16250;49.932;10.980;2023-01-08T04:04:13;2.50;;;2.35;;
29210;SDS011;16250;49.932;10.980;2023-01-08T04:06:39;0.70;;;0.70;;
29210;SDS011;16250;49.932;10.980;2023-01-08T04:09:04;0.70;;;0.70;;
29210;SDS011;16250;49.932;10.980;2023-01-08T04:11:30;0.70;;;0.70;;
29210;SDS011;16250;49.932;10.980;2023-01-08T04:13:56;0.73;;;0.73;;
29210;SDS011;16250;49.932;10.980;2023-01-08T04:16:22;0.90;;;0.90;;
29210;SDS011;16250;49.932;10.980;2023-01-08T04:18:48;0.70;;;0.70;;
29210;SDS011;16250;49.932;10.980;2023-01-08T04:21:13;0.60;;;0.60;;
29210;SDS011;16250;49.932;10.980;2023-01-08T04:23:39;1.60;;;1.60;;
29210;SDS011;16250;49.932;10.980;2023-01-08T04:26:05;0.70;;;0.70;;
29210;SDS011;16250;49.932;10.980;2023-01-08T04:28:31;0.85;;;0.85;;
29210;SDS011;16250;49.932;10.980;2023-01-08T04:30:57;0.70;;;0.70;;
29210;SDS011;16250;49.932;10.980;2023-01-08T04:33:23;8.77;;;2.38;;
29210;SDS011;16250;49.932;10.980;2023-01-08T04:35:49;0.75;;;0.75;;
29210;SDS011;16250;49.932;10.980;2023-01-08T04:38:15;0.60;;;0.60;;
29210;SDS011;16250;49.932;10.980;2023-01-08T04:40:41;0.70;;;0.70;;
29210;SDS011;16250;49.932;10.980;2023-01-08T04:43:06;1.70;;;1.60;;
29210;SDS011;16250;49.932;10.980;2023-01-08T04:45:32;1.48;;;1.13;;
29210;SDS011;16250;49.932;10.980;2023-01-08T04:47:58;0.70;;;0.70;;
29210;SDS011;16250;49.932;10.980;2023-01-08T04:50:24;1.00;;;1.00;;
29210;SDS011;16250;49.932;10.980;2023-01-08T04:52:50;1.17;;;1.08;;
29210;SDS011;16250;49.932;10.980;2023-01-08T04:55:16;0.60;;;0.60;;
29210;SDS011;16250;49.932;10.980;2023-01-08T04:57:42;0.70;;;0.70;;
29210;SDS011;16250;49.932;10.980;2023-01-08T05:00:07;1.02;;;1.02;;
29210;SDS011;16250;49.932;10.980;2023-01-08T05:02:33;0.60;;;0.60;;
29210;SDS011;16250;49.932;10.980;2023-01-08T05:04:59;0.60;;;0.60;;
29210;SDS011;16250;49.932;10.980;2023-01-08T05:07:24;0.65;;;0.65;;
29210;SDS011;16250;49.932;10.980;2023-01-08T05:09:50;0.70;;;0.70;;
29210;SDS011;16250;49.932;10.980;2023-01-08T05:12:16;0.70;;;0.70;;
29210;SDS011;16250;49.932;10.980;2023-01-08T05:14:42;0.65;;;0.65;;
29210;SDS011;16250;49.932;10.980;2023-01-08T05:17:07;0.60;;;0.60;;
29210;SDS011;16250;49.932;10.980;2023-01-08T05:19:33;0.73;;;0.73;;
29210;SDS011;16250;49.932;10.980;2023-01-08T05:21:59;0.63;;;0.63;;
29210;SDS011;16250;49.932;10.980;2023-01-08T05:24:24;0.70;;;0.70;;
29210;SDS011;16250;49.932;10.980;2023-01-08T05:26:50;0.70;;;0.70;;
29210;SDS011;16250;49.932;10.980;2023-01-08T05:29:15;0.75;;;0.75;;
29210;SDS011;16250;49.932;10.980;2023-01-08T05:31:41;0.55;;;0.55;;
29210;SDS011;16250;49.932;10.980;2023-01-08T05:34:07;0.50;;;0.50;;
29210;SDS011;16250;49.932;10.980;2023-01-08T05:36:32;1.17;;;1.17;;
29210;SDS011;16250;49.932;10.980;2023-01-08T05:38:58;0.60;;;0.60;;
29210;SDS011;16250;49.932;10.980;2023-01-08T05:41:23;1.20;;;1.15;;
29210;SDS011;16250;49.932;10.980;2023-01-08T05:43:49;0.60;;;0.60;;
29210;SDS011;16250;49.932;10.980;2023-01-08T05:46:14;1.38;;;1.20;;
29210;SDS011;16250;49.932;10.980;2023-01-08T05:48:40;1.60;;;1.50;;
29210;SDS011;16250;49.932;10.980;2023-01-08T05:51:05;0.50;;;0.50;;
29210;SDS011;16250;49.932;10.980;2023-01-08T05:53:31;0.55;;;0.55;;
29210;SDS011;16250;49.932;10.980;2023-01-08T05:56:00;0.60;;;0.60;;
29210;SDS011;16250;49.932;10.980;2023-01-08T05:58:27;0.70;;;0.70;;
29210;SDS011;16250;49.932;10.980;2023-01-08T06:00:53;0.98;;;0.98;;
29210;SDS011;16250;49.932;10.980;2023-01-08T06:03:24;0.50;;;0.50;;
29210;SDS011;16250;49.932;10.980;2023-01-08T06:05:49;0.98;;;0.98;;
29210;SDS011;16250;49.932;10.980;2023-01-08T06:08:15;0.63;;;0.63;;
29210;SDS011;16250;49.932;10.980;2023-01-08T06:10:41;0.60;;;0.60;;
29210;SDS011;16250;49.932;10.980;2023-01-08T06:13:06;1.30;;;1.30;;
29210;SDS011;16250;49.932;10.980;2023-01-08T06:15:33;0.60;;;0.60;;
29210;SDS011;16250;49.932;10.980;2023-01-08T06:18:02;0.70;;;0.70;;
29210;SDS011;16250;49.932;10.980;2023-01-08T06:20:28;1.42;;;1.33;;
29210;SDS011;16250;49.932;10.980;2023-01-08T06:22:53;0.52;;;0.52;;
29210;SDS011;16250;49.932;10.980;2023-01-08T06:25:19;1.40;;;1.00;;
29210;SDS011;16250;49.932;10.980;2023-01-08T06:27:49;0.60;;;0.60;;
29210;SDS011;16250;49.932;10.980;2023-01-08T06:30:15;0.82;;;0.82;;
29210;SDS011;16250;49.932;10.980;2023-01-08T06:32:41;1.13;;;1.05;;
29210;SDS011;16250;49.932;10.980;2023-01-08T06:35:07;0.50;;;0.50;;
29210;SDS011;16250;49.932;10.980;2023-01-08T06:37:33;0.50;;;0.50;;
29210;SDS011;16250;49.932;10.980;2023-01-08T06:39:58;0.60;;;0.60;;
29210;SDS011;16250;49.932;10.980;2023-01-08T06:42:24;0.68;;;0.68;;
29210;SDS011;16250;49.932;10.980;2023-01-08T06:44:49;1.17;;;1.17;;
29210;SDS011;16250;49.932;10.980;2023-01-08T06:47:15;0.60;;;0.60;;
29210;SDS011;16250;49.932;10.980;2023-01-08T06:49:40;0.70;;;0.70;;
29210;SDS011;16250;49.932;10.980;2023-01-08T06:52:06;0.70;;;0.70;;
29210;SDS011;16250;49.932;10.980;2023-01-08T06:54:31;0.60;;;0.60;;
29210;SDS011;16250;49.932;10.980;2023-01-08T06:56:57;0.70;;;0.70;;
29210;SDS011;16250;49.932;10.980;2023-01-08T06:59:22;0.80;;;0.80;;
29210;SDS011;16250;49.932;10.980;2023-01-08T07:01:48;0.60;;;0.60;;
29210;SDS011;16250;49.932;10.980;2023-01-08T07:04:14;2.35;;;1.77;;
29210;SDS011;16250;49.932;10.980;2023-01-08T07:06:40;0.70;;;0.70;;
29210;SDS011;16250;49.932;10.980;2023-01-08T07:09:06;1.25;;;1.23;;
29210;SDS011;16250;49.932;10.980;2023-01-08T07:11:32;0.50;;;0.50;;
29210;SDS011;16250;49.932;10.980;2023-01-08T07:13:57;1.05;;;1.05;;
29210;SDS011;16250;49.932;10.980;2023-01-08T07:16:23;0.60;;;0.60;;
29210;SDS011;16250;49.932;10.980;2023-01-08T07:18:48;0.98;;;0.98;;
29210;SDS011;16250;49.932;10.980;2023-01-08T07:21:14;1.95;;;1.65;;
29210;SDS011;16250;49.932;10.980;2023-01-08T07:23:40;1.17;;;1.17;;
29210;SDS011;16250;49.932;10.980;2023-01-08T07:26:05;0.60;;;0.60;;
29210;SDS011;16250;49.932;10.980;2023-01-08T07:28:32;0.60;;;0.60;;
29210;SDS011;16250;49.932;10.980;2023-01-08T07:31:01;0.77;;;0.77;;
29210;SDS011;16250;49.932;10.980;2023-01-08T07:33:27;1.30;;;1.30;;
29210;SDS011;16250;49.932;10.980;2023-01-08T07:35:53;0.70;;;0.70;;
29210;SDS011;16250;49.932;10.980;2023-01-08T07:38:20;2.33;;;1.77;;
29210;SDS011;16250;49.932;10.980;2023-01-08T07:40:46;1.13;;;1.10;;
29210;SDS011;16250;49.932;10.980;2023-01-08T07:43:12;3.00;;;2.08;;
29210;SDS011;16250;49.932;10.980;2023-01-08T07:45:37;0.50;;;0.50;;
29210;SDS011;16250;49.932;10.980;2023-01-08T07:48:03;0.50;;;0.50;;
29210;SDS011;16250;49.932;10.980;2023-01-08T07:50:30;1.80;;;1.70;;
29210;SDS011;16250;49.932;10.980;2023-01-08T07:52:57;0.50;;;0.50;;
29210;SDS011;16250;49.932;10.980;2023-01-08T07:55:23;2.47;;;1.63;;
29210;SDS011;16250;49.932;10.980;2023-01-08T07:57:49;1.00;;;1.00;;
29210;SDS011;16250;49.932;10.980;2023-01-08T08:00:14;1.75;;;1.65;;
29210;SDS011;16250;49.932;10.980;2023-01-08T08:02:40;0.70;;;0.70;;
29210;SDS011;16250;49.932;10.980;2023-01-08T08:05:06;1.42;;;1.33;;
29210;SDS011;16250;49.932;10.980;2023-01-08T08:07:32;0.85;;;0.85;;
29210;SDS011;16250;49.932;10.980;2023-01-08T08:09:57;0.70;;;0.70;;
29210;SDS011;16250;49.932;10.980;2023-01-08T08:12:23;3.05;;;2.85;;
29210;SDS011;16250;49.932;10.980;2023-01-08T08:14:48;2.90;;;2.80;;
29210;SDS011;16250;49.932;10.980;2023-01-08T08:17:14;0.70;;;0.70;;
29210;SDS011;16250;49.932;10.980;2023-01-08T08:19:39;2.05;;;2.00;;
29210;SDS011;16250;49.932;10.980;2023-01-08T08:22:08;0.98;;;0.95;;
29210;SDS011;16250;49.932;10.980;2023-01-08T08:24:34;0.60;;;0.60;;
29210;SDS011;16250;49.932;10.980;2023-01-08T08:26:59;2.03;;;1.83;;
29210;SDS011;16250;49.932;10.980;2023-01-08T08:29:25;0.60;;;0.60;;
29210;SDS011;16250;49.932;10.980;2023-01-08T08:31:50;1.45;;;1.00;;
29210;SDS011;16250;49.932;10.980;2023-01-08T08:34:16;1.48;;;1.45;;
29210;SDS011;16250;49.932;10.980;2023-01-08T08:36:41;0.60;;;0.60;;
29210;SDS011;16250;49.932;10.980;2023-01-08T08:39:07;3.33;;;1.80;;
29210;SDS011;16250;49.932;10.980;2023-01-08T08:41:32;0.60;;;0.60;;
29210;SDS011;16250;49.932;10.980;2023-01-08T08:43:58;1.92;;;1.83;;
29210;SDS011;16250;49.932;10.980;2023-01-08T08:46:23;0.60;;;0.60;;
29210;SDS011;16250;49.932;10.980;2023-01-08T08:48:49;0.60;;;0.60;;
29210;SDS011;16250;49.932;10.980;2023-01-08T08:51:15;0.63;;;0.63;;
29210;SDS011;16250;49.932;10.980;2023-01-08T08:53:40;0.90;;;0.85;;
29210;SDS011;16250;49.932;10.980;2023-01-08T08:56:06;1.45;;;1.38;;
29210;SDS011;16250;49.932;10.980;2023-01-08T08:58:32;1.65;;;1.55;;
29210;SDS011;16250;49.932;10.980;2023-01-08T09:01:01;1.40;;;1.30;;
29210;SDS011;16250;49.932;10.980;2023-01-08T09:03:28;0.70;;;0.70;;
29210;SDS011;16250;49.932;10.980;2023-01-08T09:05:53;1.20;;;1.20;;
29210;SDS011;16250;49.932;10.980;2023-01-08T09:08:19;0.70;;;0.70;;
29210;SDS011;16250;49.932;10.980;2023-01-08T09:10:45;1.25;;;1.25;;
29210;SDS011;16250;49.932;10.980;2023-01-08T09:13:10;0.55;;;0.55;;
29210;SDS011;16250;49.932;10.980;2023-01-08T09:15:36;0.50;;;0.50;;
29210;SDS011;16250;49.932;10.980;2023-01-08T09:18:03;0.65;;;0.65;;
29210;SDS011;16250;49.932;10.980;2023-01-08T09:20:28;0.80;;;0.80;;
29210;SDS011;16250;49.932;10.980;2023-01-08T09:22:56;0.60;;;0.60;;
29210;SDS011;16250;49.932;10.980;2023-01-08T09:25:23;0.65;;;0.65;;
29210;SDS011;16250;49.932;10.980;2023-01-08T09:27:56;1.25;;;1.15;;
29210;SDS011;16250;49.932;10.980;2023-01-08T09:30:26;0.77;;;0.77;;
29210;SDS011;16250;49.932;10.980;2023-01-08T09:32:57;1.88;;;1.77;;
29210;SDS011;16250;49.932;10.980;2023-01-08T09:35:23;0.70;;;0.70;;
29210;SDS011;16250;49.932;10.980;2023-01-08T09:37:50;0.80;;;0.80;;
29210;SDS011;16250;49.932;10.980;2023-01-08T09:40:16;1.17;;;1.17;;
29210;SDS011;16250;49.932;10.980;2023-01-08T09:42:43;1.15;;;1.15;;
29210;SDS011;16250;49.932;10.980;2023-01-08T09:45:21;2.53;;;1.90;;
29210;SDS011;16250;49.932;10.980;2023-01-08T09:47:50;0.70;;;0.70;;
29210;SDS011;16250;49.932;10.980;2023-01-08T09:50:16;0.60;;;0.60;;
29210;SDS011;16250;49.932;10.980;2023-01-08T09:52:42;0.65;;;0.65;;
29210;SDS011;16250;49.932;10.980;2023-01-08T09:55:14;0.90;;;0.90;;
29210;SDS011;16250;49.932;10.980;2023-01-08T09:57:41;0.80;;;0.80;;
29210;SDS011;16250;49.932;10.980;2023-01-08T10:02:50;2.22;;;2.13;;
29210;SDS011;16250;49.932;10.980;2023-01-08T10:05:18;1.10;;;1.10;;
29210;SDS011;16250;49.932;10.980;2023-01-08T10:07:43;1.00;;;1.00;;
29210;SDS011;16250;49.932;10.980;2023-01-08T10:10:15;1.38;;;1.38;;
29210;SDS011;16250;49.932;10.980;2023-01-08T10:12:52;0.80;;;0.80;;
29210;SDS011;16250;49.932;10.980;2023-01-08T10:15:19;19.08;;;9.05;;
29210;SDS011;16250;49.932;10.980;2023-01-08T10:20:31;2.00;;;1.85;;
29210;SDS011;16250;49.932;10.980;2023-01-08T10:23:08;1.45;;;1.35;;
29210;SDS011;16250;49.932;10.980;2023-01-08T10:28:22;1.42;;;1.42;;
29210;SDS011;16250;49.932;10.980;2023-01-08T10:30:50;0.88;;;0.88;;
29210;SDS011;16250;49.932;10.980;2023-01-08T10:33:19;0.80;;;0.80;;
29210;SDS011;16250;49.932;10.980;2023-01-08T10:35:56;0.85;;;0.85;;
29210;SDS011;16250;49.932;10.980;2023-01-08T10:40:57;0.98;;;0.98;;
29210;SDS011;16250;49.932;10.980;2023-01-08T10:43:30;2.00;;;1.90;;
29210;SDS011;16250;49.932;10.980;2023-01-08T10:45:59;2.00;;;1.90;;
29210;SDS011;16250;49.932;10.980;2023-01-08T10:49:14;0.90;;;0.90;;
29210;SDS011;16250;49.932;10.980;2023-01-08T10:51:22;1.92;;;1.83;;
29210;SDS011;16250;49.932;10.980;2023-01-08T10:53:50;1.13;;;1.13;;
29210;SDS011;16250;49.932;10.980;2023-01-08T10:58:49;1.60;;;1.50;;
29210;SDS011;16250;49.932;10.980;2023-01-08T11:01:23;1.10;;;1.10;;
29210;SDS011;16250;49.932;10.980;2023-01-08T11:03:54;2.10;;;2.00;;
29210;SDS011;16250;49.932;10.980;2023-01-08T11:06:23;1.10;;;1.10;;
29210;SDS011;16250;49.932;10.980;2023-01-08T11:08:52;1.25;;;1.25;;
29210;SDS011;16250;49.932;10.980;2023-01-08T11:11:21;1.27;;;1.27;;
29210;SDS011;16250;49.932;10.980;2023-01-08T11:14:31;1.10;;;1.10;;
29210;SDS011;16250;49.932;10.980;2023-01-08T11:16:59;1.25;;;1.25;;
29210;SDS011;16250;49.932;10.980;2023-01-08T11:19:29;1.33;;;1.33;;
29210;SDS011;16250;49.932;10.980;2023-01-08T11:21:58;1.50;;;1.50;;
29210;SDS011;16250;49.932;10.980;2023-01-08T11:24:31;1.20;;;1.20;;
29210;SDS011;16250;49.932;10.980;2023-01-08T11:27:09;2.15;;;2.05;;
29210;SDS011;16250;49.932;10.980;2023-01-08T11:32:20;1.80;;;1.77;;
29210;SDS011;16250;49.932;10.980;2023-01-08T11:34:50;2.40;;;2.30;;
29210;SDS011;16250;49.932;10.980;2023-01-08T11:39:46;2.30;;;2.10;;
29210;SDS011;16250;49.932;10.980;2023-01-08T11:50:40;2.10;;;2.00;;
29210;SDS011;16250;49.932;10.980;2023-01-08T11:53:21;1.60;;;1.60;;
29210;SDS011;16250;49.932;10.980;2023-01-08T12:04:17;4.22;;;3.78;;
29210;SDS011;16250;49.932;10.980;2023-01-08T12:07:09;13.40;;;11.27;;
29210;SDS011;16250;49.932;10.980;2023-01-08T12:09:45;3.30;;;3.20;;
29210;SDS011;16250;49.932;10.980;2023-01-08T12:15:19;2.40;;;2.30;;
29210;SDS011;16250;49.932;10.980;2023-01-08T12:20:58;3.20;;;3.10;;
29210;SDS011;16250;49.932;10.980;2023-01-08T12:29:17;2.90;;;2.80;;
29210;SDS011;16250;49.932;10.980;2023-01-08T12:31:53;2.88;;;2.78;;
29210;SDS011;16250;49.932;10.980;2023-01-08T12:34:48;3.40;;;3.30;;
29210;SDS011;16250;49.932;10.980;2023-01-08T12:37:17;3.00;;;2.90;;
29210;SDS011;16250;49.932;10.980;2023-01-08T12:40:02;2.80;;;2.70;;
29210;SDS011;16250;49.932;10.980;2023-01-08T12:42:49;3.38;;;3.28;;
29210;SDS011;16250;49.932;10.980;2023-01-08T12:45:24;3.40;;;3.30;;
29210;SDS011;16250;49.932;10.980;2023-01-08T12:47:58;4.20;;;4.07;;
29210;SDS011;16250;49.932;10.980;2023-01-08T13:01:54;4.53;;;4.32;;
29210;SDS011;16250;49.932;10.980;2023-01-08T13:04:44;4.53;;;4.43;;
29210;SDS011;16250;49.932;10.980;2023-01-08T13:07:17;4.47;;;4.38;;
29210;SDS011;16250;49.932;10.980;2023-01-08T13:09:54;7.50;;;7.10;;
29210;SDS011;16250;49.932;10.980;2023-01-08T13:12:25;5.10;;;4.90;;
29210;SDS011;16250;49.932;10.980;2023-01-08T13:15:20;4.75;;;4.60;;
29210;SDS011;16250;49.932;10.980;2023-01-08T13:17:49;6.53;;;6.30;;
29210;SDS011;16250;49.932;10.980;2023-01-08T13:20:26;5.60;;;5.40;;
29210;SDS011;16250;49.932;10.980;2023-01-08T13:22:55;5.75;;;5.55;;
29210;SDS011;16250;49.932;10.980;2023-01-08T13:27:49;7.03;;;6.72;;
29210;SDS011;16250;49.932;10.980;2023-01-08T13:36:15;8.57;;;8.00;;
29210;SDS011;16250;49.932;10.980;2023-01-08T13:38:43;7.18;;;6.97;;
29210;SDS011;16250;49.932;10.980;2023-01-08T13:43:59;6.93;;;6.72;;
29210;SDS011;16250;49.932;10.980;2023-01-08T13:46:40;6.93;;;6.72;;
29210;SDS011;16250;49.932;10.980;2023-01-08T13:49:06;7.65;;;7.35;;
29210;SDS011;16250;49.932;10.980;2023-01-08T13:56:42;8.80;;;8.50;;
29210;SDS011;16250;49.932;10.980;2023-01-08T13:59:17;8.75;;;8.45;;
29210;SDS011;16250;49.932;10.980;2023-01-08T14:01:55;8.80;;;8.50;;
29210;SDS011;16250;49.932;10.980;2023-01-08T14:04:22;7.82;;;7.53;;
29210;SDS011;16250;49.932;10.980;2023-01-08T14:06:48;8.63;;;8.32;;
29210;SDS011;16250;49.932;10.980;2023-01-08T14:09:23;9.95;;;9.50;;
29210;SDS011;16250;49.932;10.980;2023-01-08T14:11:51;8.73;;;8.43;;
29210;SDS011;16250;49.932;10.980;2023-01-08T14:14:21;8.82;;;8.52;;
29210;SDS011;16250;49.932;10.980;2023-01-08T14:16:49;11.07;;;10.68;;
29210;SDS011;16250;49.932;10.980;2023-01-08T14:19:16;9.45;;;9.15;;
29210;SDS011;16250;49.932;10.980;2023-01-08T14:21:51;9.20;;;8.90;;
29210;SDS011;16250;49.932;10.980;2023-01-08T14:24:18;9.63;;;9.32;;
29210;SDS011;16250;49.932;10.980;2023-01-08T14:26:50;8.50;;;8.20;;
29210;SDS011;16250;49.932;10.980;2023-01-08T14:29:22;10.00;;;9.60;;
29210;SDS011;16250;49.932;10.980;2023-01-08T14:31:53;8.88;;;8.57;;
29210;SDS011;16250;49.932;10.980;2023-01-08T14:34:21;8.80;;;8.50;;
29210;SDS011;16250;49.932;10.980;2023-01-08T14:36:50;9.30;;;9.00;;
29210;SDS011;16250;49.932;10.980;2023-01-08T14:39:23;10.50;;;10.10;;
29210;SDS011;16250;49.932;10.980;2023-01-08T14:41:56;9.20;;;8.90;;
29210;SDS011;16250;49.932;10.980;2023-01-08T14:44:52;9.65;;;9.35;;
29210;SDS011;16250;49.932;10.980;2023-01-08T14:47:18;9.10;;;8.80;;
29210;SDS011;16250;49.932;10.980;2023-01-08T14:49:51;8.95;;;8.65;;
29210;SDS011;16250;49.932;10.980;2023-01-08T14:52:18;9.63;;;9.23;;
29210;SDS011;16250;49.932;10.980;2023-01-08T14:54:46;9.98;;;9.38;;
29210;SDS011;16250;49.932;10.980;2023-01-08T14:57:14;9.13;;;8.82;;
29210;SDS011;16250;49.932;10.980;2023-01-08T14:59:42;9.35;;;9.05;;
29210;SDS011;16250;49.932;10.980;2023-01-08T15:02:20;9.30;;;9.00;;
29210;SDS011;16250;49.932;10.980;2023-01-08T15:04:59;8.95;;;8.65;;
29210;SDS011;16250;49.932;10.980;2023-01-08T15:07:37;9.20;;;8.90;;
29210;SDS011;16250;49.932;10.980;2023-01-08T15:10:21;7.85;;;7.55;;
29210;SDS011;16250;49.932;10.980;2023-01-08T15:12:55;8.43;;;8.13;;
29210;SDS011;16250;49.932;10.980;2023-01-08T15:15:22;9.27;;;8.95;;
29210;SDS011;16250;49.932;10.980;2023-01-08T15:17:48;9.52;;;9.23;;
29210;SDS011;16250;49.932;10.980;2023-01-08T15:20:15;9.30;;;9.00;;
29210;SDS011;16250;49.932;10.980;2023-01-08T15:22:42;9.98;;;9.38;;
29210;SDS011;16250;49.932;10.980;2023-01-08T15:25:17;8.57;;;8.27;;
29210;SDS011;16250;49.932;10.980;2023-01-08T15:27:51;9.48;;;8.68;;
29210;SDS011;16250;49.932;10.980;2023-01-08T15:30:25;9.40;;;9.10;;
29210;SDS011;16250;49.932;10.980;2023-01-08T15:33:05;9.65;;;9.35;;
29210;SDS011;16250;49.932;10.980;2023-01-08T15:35:32;8.65;;;8.35;;
29210;SDS011;16250;49.932;10.980;2023-01-08T15:37:57;9.40;;;9.10;;
29210;SDS011;16250;49.932;10.980;2023-01-08T15:40:23;9.32;;;8.73;;
29210;SDS011;16250;49.932;10.980;2023-01-08T15:42:48;11.35;;;10.95;;
29210;SDS011;16250;49.932;10.980;2023-01-08T15:45:32;8.52;;;8.13;;
29210;SDS011;16250;49.932;10.980;2023-01-08T15:47:58;8.80;;;8.40;;
29210;SDS011;16250;49.932;10.980;2023-01-08T15:50:24;9.68;;;8.95;;
29210;SDS011;16250;49.932;10.980;2023-01-08T15:52:51;10.05;;;9.68;;
29210;SDS011;16250;49.932;10.980;2023-01-08T15:55:18;9.68;;;9.38;;
29210;SDS011;16250;49.932;10.980;2023-01-08T15:57:46;8.75;;;8.45;;
29210;SDS011;16250;49.932;10.980;2023-01-08T16:00:12;11.25;;;10.82;;
29210;SDS011;16250;49.932;10.980;2023-01-08T16:02:40;9.18;;;8.88;;
29210;SDS011;16250;49.932;10.980;2023-01-08T16:05:07;7.97;;;7.68;;
29210;SDS011;16250;49.932;10.980;2023-01-08T16:07:33;9.00;;;8.70;;
29210;SDS011;16250;49.932;10.980;2023-01-08T16:09:58;8.80;;;8.50;;
29210;SDS011;16250;49.932;10.980;2023-01-08T16:12:24;7.95;;;7.43;;
29210;SDS011;16250;49.932;10.980;2023-01-08T16:14:49;11.30;;;10.63;;